createdAt,value
2018-05-25T00:01:11.506Z,36.93
2018-05-25T00:03:39.891Z,34.50
2018-05-25T00:06:08.304Z,34.80
2018-05-25T00:08:36.730Z,33.80
2018-05-25T00:11:05.117Z,33.90
2018-05-25T00:13:33.590Z,32.87
2018-05-25T00:16:02.076Z,35.70
2018-05-25T00:18:30.492Z,35.33
2018-05-25T00:20:58.978Z,38.77
2018-05-25T00:23:27.442Z,36.30
2018-05-25T00:25:55.874Z,37.40
2018-05-25T00:28:24.350Z,40.80
2018-05-25T00:30:52.719Z,37.40
2018-05-25T00:33:21.343Z,31.00
2018-05-25T00:35:49.741Z,41.50
2018-05-25T00:38:18.262Z,37.63
2018-05-25T00:40:46.671Z,36.03
2018-05-25T00:43:15.116Z,35.03
2018-05-25T00:45:43.462Z,35.23
2018-05-25T00:48:11.836Z,29.27
2018-05-25T00:50:40.244Z,32.33
2018-05-25T00:53:08.713Z,34.87
2018-05-25T00:55:39.995Z,30.10
2018-05-25T00:58:08.397Z,24.60
2018-05-25T01:00:36.788Z,30.33
2018-05-25T01:03:05.201Z,30.00
2018-05-25T01:05:33.662Z,32.43
2018-05-25T01:08:02.066Z,31.67
2018-05-25T01:10:30.577Z,30.07
2018-05-25T01:12:59.030Z,33.10
2018-05-25T01:15:27.421Z,31.43
2018-05-25T01:17:55.869Z,30.20
2018-05-25T01:20:24.494Z,32.57
2018-05-25T01:22:52.845Z,33.33
2018-05-25T01:25:21.307Z,31.17
2018-05-25T01:27:49.787Z,31.83
2018-05-25T01:30:18.203Z,30.40
2018-05-25T01:32:46.604Z,29.57
2018-05-25T01:35:15.144Z,31.23
2018-05-25T01:37:44.620Z,28.37
2018-05-25T01:40:13.015Z,25.13
2018-05-25T01:42:41.485Z,28.80
2018-05-25T01:45:09.916Z,25.20
2018-05-25T01:47:38.360Z,28.90
2018-05-25T01:50:06.747Z,29.17
2018-05-25T01:52:36.063Z,30.77
2018-05-25T01:55:04.467Z,27.80
2018-05-25T01:57:32.932Z,33.83
2018-05-25T02:00:01.381Z,30.63
2018-05-25T02:02:29.786Z,29.63
2018-05-25T02:04:58.234Z,29.23
2018-05-25T02:07:26.628Z,31.43
2018-05-25T02:09:55.088Z,32.23
2018-05-25T02:12:23.557Z,27.33
2018-05-25T02:14:51.988Z,25.70
2018-05-25T02:17:20.420Z,25.83
2018-05-25T02:19:48.917Z,23.33
2018-05-25T02:22:17.371Z,26.27
2018-05-25T02:24:45.762Z,25.70
2018-05-25T02:27:14.200Z,21.77
2018-05-25T02:29:42.658Z,26.63
2018-05-25T02:32:11.037Z,23.17
2018-05-25T02:34:39.473Z,29.70
2018-05-25T02:37:08.073Z,27.77
2018-05-25T02:39:36.534Z,28.40
2018-05-25T02:42:05.146Z,29.57
2018-05-25T02:44:33.610Z,24.90
2018-05-25T02:47:02.044Z,24.40
2018-05-25T02:49:30.396Z,22.47
2018-05-25T02:51:58.788Z,21.30
2018-05-25T02:54:27.250Z,31.40
2018-05-25T02:56:55.723Z,25.53
2018-05-25T02:59:24.151Z,23.80
2018-05-25T03:01:52.717Z,22.40
2018-05-25T03:04:21.117Z,26.67
2018-05-25T03:06:49.496Z,25.90
2018-05-25T03:09:17.860Z,25.70
2018-05-25T03:11:46.434Z,29.40
2018-05-25T03:14:14.982Z,25.27
2018-05-25T03:16:43.369Z,30.33
2018-05-25T03:19:11.819Z,28.97
2018-05-25T03:21:40.256Z,21.90
2018-05-25T03:24:08.729Z,26.90
2018-05-25T03:26:37.206Z,27.87
2018-05-25T03:29:05.689Z,25.70
2018-05-25T03:31:35.012Z,33.23
2018-05-25T03:34:03.393Z,30.80
2018-05-25T03:36:31.813Z,27.03
2018-05-25T03:39:00.276Z,31.97
2018-05-25T03:41:28.635Z,30.97
2018-05-25T03:43:57.045Z,30.83
2018-05-25T03:46:25.484Z,36.20
2018-05-25T03:48:53.955Z,32.57
2018-05-25T03:51:22.327Z,32.50
2018-05-25T03:53:50.771Z,30.00
2018-05-25T03:56:19.170Z,34.50
2018-05-25T04:02:00.595Z,39.10
2018-05-25T04:04:30.289Z,41.10
2018-05-25T04:06:58.820Z,32.97
2018-05-25T04:09:30.338Z,35.20
2018-05-25T04:11:59.026Z,36.90
2018-05-25T04:14:27.747Z,36.50
2018-05-25T04:17:01.131Z,35.80
2018-05-25T04:30:26.311Z,32.77
2018-05-25T04:32:59.302Z,35.63
2018-05-25T04:35:31.941Z,36.20
2018-05-25T04:38:03.117Z,37.70
2018-05-25T04:40:35.774Z,33.67
2018-05-25T04:43:07.844Z,37.13
2018-05-25T04:45:36.609Z,33.30
2018-05-25T04:48:05.367Z,33.77
2018-05-25T04:50:34.913Z,32.30
2018-05-25T04:53:03.872Z,31.57
2018-05-25T04:55:33.197Z,34.37
2018-05-25T04:58:01.795Z,33.53
2018-05-25T05:00:30.534Z,32.60
2018-05-25T05:03:00.219Z,35.77
2018-05-25T05:05:28.816Z,29.67
2018-05-25T05:07:57.515Z,30.80
2018-05-25T05:10:28.019Z,27.73
2018-05-25T05:13:04.342Z,29.60
2018-05-25T05:15:35.143Z,27.70
2018-05-25T05:18:04.176Z,31.40
2018-05-25T05:20:32.717Z,25.70
2018-05-25T05:23:01.831Z,31.47
2018-05-25T05:25:30.444Z,28.80
2018-05-25T05:28:01.719Z,27.63
2018-05-25T05:30:30.807Z,25.40
2018-05-25T05:33:01.324Z,28.00
2018-05-25T05:35:33.123Z,31.47
2018-05-25T05:38:04.589Z,34.17
2018-05-25T05:40:35.288Z,33.40
2018-05-25T05:43:12.792Z,30.73
2018-05-25T05:45:43.684Z,27.50
2018-05-25T05:48:12.247Z,30.90
2018-05-25T05:50:42.046Z,27.20
2018-05-25T05:53:12.403Z,24.33
2018-05-25T05:55:44.450Z,26.80
2018-05-25T05:58:12.946Z,29.63
2018-05-25T06:00:45.184Z,28.90
2018-05-25T06:03:19.201Z,29.93
2018-05-25T06:05:50.903Z,32.20
2018-05-25T06:08:20.937Z,32.33
2018-05-25T06:10:56.151Z,30.57
2018-05-25T06:13:24.831Z,34.83
2018-05-25T06:15:53.604Z,29.10
2018-05-25T06:18:23.192Z,29.50
2018-05-25T06:20:59.035Z,25.77
2018-05-25T06:32:42.775Z,29.03
2018-05-25T06:35:13.339Z,26.83
2018-05-25T06:37:46.225Z,28.40
2018-05-25T06:43:28.923Z,28.10
2018-05-25T06:46:02.292Z,29.30
2018-05-25T06:55:00.148Z,21.73
2018-05-25T06:57:36.519Z,23.10
2018-05-25T07:06:36.222Z,22.37
2018-05-25T07:09:19.840Z,23.50
2018-05-25T07:11:48.228Z,20.73
2018-05-25T07:14:16.683Z,22.17
2018-05-25T07:16:45.097Z,21.13
2018-05-25T07:19:13.618Z,17.90
2018-05-25T07:21:41.973Z,18.10
2018-05-25T07:24:10.326Z,15.97
2018-05-25T07:26:38.797Z,13.67
2018-05-25T07:29:07.144Z,17.80
2018-05-25T07:31:36.729Z,14.90
2018-05-25T07:34:05.122Z,16.53
2018-05-25T07:36:33.563Z,16.93
2018-05-25T07:39:02.015Z,15.33
2018-05-25T07:41:37.280Z,18.70
2018-05-25T07:44:05.705Z,15.13
2018-05-25T07:46:42.925Z,17.30
2018-05-25T07:49:11.480Z,18.60
2018-05-25T07:51:39.844Z,17.20
2018-05-25T07:54:08.261Z,16.53
2018-05-25T07:56:36.625Z,16.50
2018-05-25T07:59:05.001Z,15.77
2018-05-25T08:01:33.381Z,16.30
2018-05-25T08:04:01.797Z,16.80
2018-05-25T08:06:30.221Z,18.90
2018-05-25T08:08:58.694Z,15.30
2018-05-25T08:11:27.094Z,15.00
2018-05-25T08:13:55.578Z,18.73
2018-05-25T08:16:23.934Z,13.47
2018-05-25T08:18:52.670Z,14.70
2018-05-25T08:21:21.115Z,14.87
2018-05-25T08:23:49.493Z,12.97
2018-05-25T08:26:17.907Z,14.57
2018-05-25T08:28:46.267Z,14.53
2018-05-25T08:31:14.709Z,14.27
2018-05-25T08:33:43.100Z,12.47
2018-05-25T08:36:11.486Z,15.67
2018-05-25T08:38:39.848Z,14.20
2018-05-25T08:41:08.282Z,16.70
2018-05-25T08:43:36.773Z,14.40
2018-05-25T08:46:07.781Z,15.43
2018-05-25T08:48:41.259Z,14.23
2018-05-25T08:51:10.092Z,17.00
2018-05-25T08:53:38.540Z,15.30
2018-05-25T08:56:06.929Z,17.87
2018-05-25T08:58:35.452Z,18.70
2018-05-25T09:01:03.834Z,20.37
2018-05-25T09:06:11.017Z,23.93
2018-05-25T09:08:42.474Z,18.70
2018-05-25T09:11:10.850Z,19.90
2018-05-25T09:13:42.378Z,21.00
2018-05-25T09:16:12.203Z,18.43
2018-05-25T09:18:44.238Z,26.47
2018-05-25T09:21:13.945Z,17.40
2018-05-25T09:23:44.217Z,16.13
2018-05-25T09:28:48.150Z,20.63
2018-05-25T09:31:16.655Z,19.03
2018-05-25T09:33:45.766Z,17.10
2018-05-25T09:36:14.359Z,14.70
2018-05-25T09:38:42.764Z,17.53
2018-05-25T09:41:11.398Z,15.40
2018-05-25T09:43:40.785Z,15.67
2018-05-25T09:46:11.089Z,18.40
2018-05-25T09:48:41.901Z,17.20
2018-05-25T09:51:10.305Z,15.83
2018-05-25T09:53:38.676Z,16.40
2018-05-25T09:56:07.078Z,17.77
2018-05-25T09:58:35.461Z,15.90
2018-05-25T10:01:03.825Z,19.03
2018-05-25T10:03:39.755Z,15.03
2018-05-25T10:06:19.219Z,12.87
2018-05-25T10:08:49.537Z,19.30
2018-05-25T10:11:17.911Z,15.37
2018-05-25T10:13:46.257Z,12.70
2018-05-25T10:16:14.635Z,13.97
2018-05-25T10:18:49.295Z,9.80
2018-05-25T10:23:57.347Z,10.10
2018-05-25T10:26:25.802Z,12.87
2018-05-25T10:28:54.739Z,10.67
2018-05-25T10:31:24.201Z,10.00
2018-05-25T10:33:57.484Z,13.63
2018-05-25T10:36:25.915Z,11.80
2018-05-25T10:38:54.435Z,11.10
2018-05-25T10:41:22.853Z,9.40
2018-05-25T10:43:51.300Z,8.97
2018-05-25T10:46:19.742Z,10.27
2018-05-25T10:48:48.191Z,11.47
2018-05-25T10:51:16.692Z,12.13
2018-05-25T10:53:45.141Z,13.47
2018-05-25T10:56:13.911Z,12.37
2018-05-25T10:58:42.544Z,14.40
2018-05-25T11:01:11.209Z,12.03
2018-05-25T11:03:42.800Z,13.30
2018-05-25T11:06:11.388Z,13.00
2018-05-25T11:08:39.912Z,12.83
2018-05-25T11:11:08.323Z,13.87
2018-05-25T11:13:36.741Z,10.97
2018-05-25T11:16:05.128Z,12.20
2018-05-25T11:18:33.558Z,9.90
2018-05-25T11:21:02.282Z,9.97
2018-05-25T11:23:30.591Z,9.37
2018-05-25T11:25:58.968Z,12.63
2018-05-25T11:28:27.396Z,17.10
2018-05-25T11:30:55.865Z,12.43
2018-05-25T11:33:24.314Z,11.30
2018-05-25T11:35:52.725Z,16.80
2018-05-25T11:38:21.152Z,9.10
2018-05-25T11:40:49.573Z,12.00
2018-05-25T11:43:18.012Z,10.60
2018-05-25T11:45:46.441Z,11.37
2018-05-25T11:48:14.820Z,11.30
2018-05-25T11:50:43.355Z,9.57
2018-05-25T11:53:13.288Z,10.63
2018-05-25T11:55:47.412Z,11.63
2018-05-25T11:58:15.895Z,11.90
2018-05-25T12:00:44.289Z,9.47
2018-05-25T12:03:15.608Z,14.20
2018-05-25T12:05:47.132Z,10.60
2018-05-25T12:08:16.554Z,10.30
2018-05-25T12:10:45.040Z,13.63
2018-05-25T12:13:13.461Z,9.50
2018-05-25T12:15:48.811Z,14.00
2018-05-25T12:18:17.223Z,8.37
2018-05-25T12:20:45.684Z,7.50
2018-05-25T12:23:14.100Z,8.20
2018-05-25T12:25:42.520Z,7.90
2018-05-25T12:28:10.920Z,9.63
2018-05-25T12:30:39.344Z,8.27
2018-05-25T12:33:07.751Z,9.17
2018-05-25T12:35:57.180Z,9.20
2018-05-25T12:38:41.486Z,10.60
2018-05-25T12:41:29.472Z,8.60
2018-05-25T12:44:00.116Z,9.13
2018-05-25T12:46:28.524Z,10.10
2018-05-25T12:48:56.951Z,11.47
2018-05-25T12:51:25.321Z,10.47
2018-05-25T12:53:53.679Z,9.90
2018-05-25T12:56:22.108Z,10.40
2018-05-25T12:58:50.480Z,11.40
2018-05-25T13:01:18.896Z,9.30
2018-05-25T13:03:47.361Z,11.47
2018-05-25T13:06:15.881Z,9.30
2018-05-25T13:08:44.238Z,8.30
2018-05-25T13:11:12.706Z,9.93
2018-05-25T13:13:41.085Z,11.07
2018-05-25T13:16:09.562Z,10.87
2018-05-25T13:18:37.984Z,11.73
2018-05-25T13:21:06.408Z,11.23
2018-05-25T13:23:34.850Z,9.67
2018-05-25T13:26:03.269Z,9.70
2018-05-25T13:28:31.675Z,8.67
2018-05-25T13:31:00.120Z,9.07
2018-05-25T13:33:28.507Z,10.73
2018-05-25T13:35:58.027Z,9.33
2018-05-25T13:38:26.380Z,9.60
2018-05-25T13:40:54.744Z,9.30
2018-05-25T13:43:27.605Z,11.20
2018-05-25T13:45:57.817Z,12.03
2018-05-25T13:48:33.740Z,9.27
2018-05-25T13:51:05.121Z,8.23
2018-05-25T13:53:33.633Z,8.83
2018-05-25T13:56:02.000Z,11.60
2018-05-25T13:58:30.433Z,7.73
2018-05-25T14:00:58.797Z,9.30
2018-05-25T14:03:27.172Z,11.17
2018-05-25T14:05:55.731Z,8.13
2018-05-25T14:08:24.155Z,9.87
2018-05-25T14:10:52.497Z,9.17
2018-05-25T14:13:20.918Z,10.90
2018-05-25T14:15:49.264Z,9.53
2018-05-25T14:18:17.677Z,8.67
2018-05-25T14:20:46.088Z,9.50
2018-05-25T14:23:14.436Z,8.83
2018-05-25T14:25:42.860Z,9.70
2018-05-25T14:28:11.243Z,9.67
2018-05-25T14:30:39.652Z,11.30
2018-05-25T14:33:08.010Z,12.27
2018-05-25T14:35:37.750Z,10.97
2018-05-25T14:38:12.616Z,9.17
2018-05-25T14:40:41.063Z,8.17
2018-05-25T14:43:10.091Z,8.10
2018-05-25T14:45:38.486Z,8.00
2018-05-25T14:48:07.257Z,9.37
2018-05-25T14:50:35.616Z,11.60
2018-05-25T14:53:04.072Z,11.37
2018-05-25T14:55:32.480Z,8.07
2018-05-25T14:58:00.853Z,8.90
2018-05-25T15:00:29.265Z,11.90
2018-05-25T15:02:57.598Z,7.73
2018-05-25T15:05:25.964Z,12.77
2018-05-25T15:07:54.412Z,8.20
2018-05-25T15:10:22.773Z,8.20
2018-05-25T15:12:51.145Z,13.30
2018-05-25T15:15:19.549Z,10.10
2018-05-25T15:17:47.927Z,8.73
2018-05-25T15:20:16.367Z,11.27
2018-05-25T15:22:44.721Z,8.00
2018-05-25T15:28:22.708Z,9.30
2018-05-25T15:30:51.331Z,10.20
2018-05-25T15:33:19.560Z,9.30
2018-05-25T15:35:47.959Z,10.23
2018-05-25T15:38:16.351Z,9.60
2018-05-25T15:40:44.731Z,9.33
2018-05-25T15:43:13.179Z,15.50
2018-05-25T15:45:41.645Z,11.57
2018-05-25T15:48:10.029Z,9.67
2018-05-25T15:50:38.404Z,11.80
2018-05-25T15:53:06.814Z,9.97
2018-05-25T15:55:36.151Z,9.73
2018-05-25T15:58:04.599Z,13.20
2018-05-25T16:00:36.242Z,10.50
2018-05-25T16:03:05.019Z,8.83
2018-05-25T16:05:34.253Z,10.03
2018-05-25T16:08:02.620Z,9.00
2018-05-25T16:10:30.976Z,10.13
2018-05-25T16:12:59.368Z,9.27
2018-05-25T16:15:28.250Z,9.23
2018-05-25T16:17:56.661Z,9.37
2018-05-25T16:20:25.936Z,9.93
2018-05-25T16:22:54.338Z,11.03
2018-05-25T16:25:23.614Z,10.77
2018-05-25T16:27:52.266Z,10.50
2018-05-25T16:30:21.508Z,14.03
2018-05-25T16:32:54.315Z,10.50
2018-05-25T16:35:23.877Z,11.13
2018-05-25T16:37:53.998Z,9.90
2018-05-25T16:40:27.009Z,8.43
2018-05-25T16:42:56.361Z,14.00
2018-05-25T16:45:26.659Z,10.03
2018-05-25T16:47:55.456Z,15.17
2018-05-25T16:50:23.901Z,11.60
2018-05-25T16:52:52.333Z,10.37
2018-05-25T16:55:20.714Z,10.53
2018-05-25T16:57:50.098Z,9.73
2018-05-25T17:00:21.194Z,12.40
2018-05-25T17:02:52.722Z,10.30
2018-05-25T17:05:25.224Z,9.20
2018-05-25T17:07:55.729Z,10.07
2018-05-25T17:10:26.819Z,11.73
2018-05-25T17:12:56.656Z,8.80
2018-05-25T17:15:25.040Z,9.63
2018-05-25T17:17:56.484Z,7.87
2018-05-25T17:20:28.943Z,10.10
2018-05-25T17:23:00.679Z,10.30
2018-05-25T17:25:29.724Z,8.77
2018-05-25T17:28:00.845Z,8.87
2018-05-25T17:30:29.935Z,8.73
2018-05-25T17:33:01.598Z,10.33
2018-05-25T17:35:38.593Z,10.67
2018-05-25T17:38:10.610Z,9.40
2018-05-25T17:40:44.402Z,9.03
2018-05-25T17:43:13.050Z,14.87
2018-05-25T17:45:41.463Z,11.60
2018-05-25T17:48:09.892Z,10.13
2018-05-25T17:50:38.256Z,10.23
2018-05-25T17:53:06.634Z,12.40
2018-05-25T17:55:35.091Z,11.43
2018-05-25T17:58:05.574Z,10.27
2018-05-25T18:00:34.010Z,11.83
2018-05-25T18:03:02.402Z,8.73
2018-05-25T18:05:30.795Z,9.07
2018-05-25T18:07:59.173Z,9.30
2018-05-25T18:10:31.065Z,10.07
2018-05-25T18:12:59.890Z,15.67
2018-05-25T18:15:28.307Z,21.10
2018-05-25T18:17:59.489Z,13.70
2018-05-25T18:20:28.606Z,16.23
2018-05-25T18:22:57.081Z,16.40
2018-05-25T18:25:25.470Z,17.23
2018-05-25T18:27:54.336Z,19.47
2018-05-25T18:30:25.255Z,18.67
2018-05-25T18:32:53.678Z,21.23
2018-05-25T18:35:22.189Z,21.73
2018-05-25T18:37:50.783Z,27.37
2018-05-25T18:40:19.228Z,19.00
2018-05-25T18:42:47.630Z,23.07
2018-05-25T18:45:16.107Z,23.53
2018-05-25T18:47:55.288Z,23.60
2018-05-25T18:50:24.288Z,25.70
2018-05-25T18:52:59.750Z,33.83
2018-05-25T18:55:30.426Z,30.63
2018-05-25T18:58:03.996Z,27.37
2018-05-25T19:00:39.772Z,27.57
2018-05-25T19:03:14.807Z,26.60
2018-05-25T19:05:52.578Z,28.10
2018-05-25T19:08:22.316Z,31.20
2018-05-25T19:10:51.132Z,31.03
2018-05-25T19:13:19.756Z,29.93
2018-05-25T19:15:54.130Z,33.63
2018-05-25T19:18:23.196Z,28.03
2018-05-25T19:20:51.887Z,25.47
2018-05-25T19:23:21.236Z,29.60
2018-05-25T19:25:49.668Z,29.80
2018-05-25T19:28:18.150Z,30.53
2018-05-25T19:30:48.381Z,30.03
2018-05-25T19:33:16.954Z,31.63
2018-05-25T19:35:46.690Z,30.27
2018-05-25T19:38:16.626Z,37.57
2018-05-25T19:40:45.095Z,32.30
2018-05-25T19:43:20.136Z,30.53
2018-05-25T19:45:48.710Z,32.73
2018-05-25T19:48:17.429Z,28.97
2018-05-25T19:50:46.261Z,32.47
2018-05-25T19:53:18.331Z,31.10
2018-05-25T19:55:47.331Z,31.87
2018-05-25T19:58:18.433Z,31.63
2018-05-25T20:00:54.048Z,28.83
2018-05-25T20:03:22.504Z,31.47
2018-05-25T20:05:50.972Z,30.30
2018-05-25T20:08:24.404Z,31.17
2018-05-25T20:10:56.153Z,28.20
2018-05-25T20:13:24.561Z,27.47
2018-05-25T20:15:53.043Z,27.27
2018-05-25T20:18:21.505Z,28.40
2018-05-25T20:20:50.476Z,27.63
2018-05-25T20:23:19.032Z,27.53
2018-05-25T20:25:47.468Z,27.10
2018-05-25T20:28:16.007Z,31.83
2018-05-25T20:30:48.604Z,27.27
2018-05-25T20:33:19.796Z,25.70
2018-05-25T20:35:49.571Z,26.20
2018-05-25T20:38:19.765Z,25.53
2018-05-25T20:40:48.223Z,25.77
2018-05-25T20:43:20.860Z,30.83
2018-05-25T20:45:50.563Z,30.87
2018-05-25T20:48:19.062Z,26.43
2018-05-25T20:50:54.134Z,27.00
2018-05-25T20:53:22.666Z,24.90
2018-05-25T20:55:59.197Z,28.10
2018-05-25T20:58:27.969Z,25.87
2018-05-25T21:00:59.574Z,26.57
2018-05-25T21:03:29.010Z,26.50
2018-05-25T21:06:15.641Z,27.73
2018-05-25T21:11:33.290Z,25.53
2018-05-25T21:14:02.830Z,26.80
2018-05-25T21:16:31.313Z,25.63
2018-05-25T21:19:00.723Z,27.27
2018-05-25T21:21:29.236Z,29.90
2018-05-25T21:23:58.006Z,31.20
2018-05-25T21:26:26.801Z,29.47
2018-05-25T21:28:55.378Z,30.00
2018-05-25T21:31:25.755Z,27.67
2018-05-25T21:33:57.034Z,31.70
2018-05-25T21:36:33.676Z,30.23
2018-05-25T21:39:13.359Z,30.97
2018-05-25T21:41:42.004Z,34.77
2018-05-25T21:44:12.502Z,31.93
2018-05-25T21:46:40.903Z,29.90
2018-05-25T21:49:09.545Z,38.70
2018-05-25T21:51:38.027Z,33.63
2018-05-25T21:54:16.294Z,30.87
2018-05-25T21:56:46.994Z,34.93
2018-05-25T21:59:20.258Z,30.90
2018-05-25T22:01:52.110Z,30.47
2018-05-25T22:04:23.569Z,34.63
2018-05-25T22:06:54.520Z,31.43
2018-05-25T22:09:29.964Z,32.50
2018-05-25T22:11:59.159Z,33.90
2018-05-25T22:14:35.308Z,29.60
2018-05-25T22:17:03.807Z,30.83
2018-05-25T22:19:40.419Z,33.13
2018-05-25T22:22:09.215Z,33.20
2018-05-25T22:24:39.831Z,31.10
2018-05-25T22:27:13.745Z,37.97
2018-05-25T22:29:53.932Z,32.10
2018-05-25T22:32:23.078Z,37.03
2018-05-25T22:34:55.144Z,33.17
2018-05-25T22:37:24.028Z,31.03
2018-05-25T22:39:52.827Z,31.73
2018-05-25T22:42:41.658Z,35.93
2018-05-25T22:45:35.583Z,32.20
2018-05-25T22:48:21.735Z,34.37
2018-05-25T22:51:08.002Z,31.70
2018-05-25T22:53:48.176Z,30.23
2018-05-25T22:56:18.635Z,30.33
2018-05-25T22:59:00.135Z,29.13
2018-05-25T23:01:28.757Z,27.27
2018-05-25T23:03:58.169Z,28.43
2018-05-25T23:06:34.598Z,28.33
2018-05-25T23:09:14.369Z,27.53
2018-05-25T23:11:52.466Z,28.53
2018-05-25T23:14:20.950Z,32.00
2018-05-25T23:16:54.879Z,25.17
2018-05-25T23:19:23.620Z,26.30
2018-05-25T23:21:52.412Z,26.03
2018-05-25T23:24:20.874Z,24.13
2018-05-25T23:26:50.243Z,25.33
2018-05-25T23:29:18.637Z,28.80
2018-05-25T23:31:47.142Z,25.00
2018-05-25T23:34:15.554Z,25.63
2018-05-25T23:36:43.940Z,32.43
2018-05-25T23:39:12.573Z,27.53
2018-05-25T23:41:41.075Z,28.67
2018-05-25T23:44:10.766Z,29.73
2018-05-25T23:46:39.246Z,28.40
2018-05-25T23:49:11.296Z,24.97
2018-05-25T23:51:41.038Z,31.73
2018-05-25T23:54:10.912Z,24.13
2018-05-25T23:56:48.423Z,24.97
2018-05-25T23:59:17.180Z,24.93
